Time;durP1;ratioP1;P1;durP2;ratioP2;P2;SDS_P1;SDS_P2;PMS_P1;PMS_P2;Temp;Humidity;BMP_temperature;BMP_pressure;BME280_temperature;BME280_humidity;BME280_pressure;Samples;Min_cycle;Max_cycle;Signal;HPM_P1;HPM_P2
2021/06/12 00:00:30;;;;;;;1.83;1.67;;;25.60;97.40;;;;;;5034125;28;20446;-69
2021/06/12 00:02:57;;;;;;;2.80;2.47;;;25.60;97.40;;;;;;5034376;28;20492;-69
2021/06/12 00:05:23;;;;;;;2.00;1.80;;;25.60;97.50;;;;;;5038274;28;20456;-69
2021/06/12 00:07:50;;;;;;;2.67;2.47;;;25.60;97.50;;;;;;5054500;28;20511;-70
2021/06/12 00:10:20;;;;;;;2.30;2.10;;;25.50;97.50;;;;;;5050138;28;20870;-69
2021/06/12 00:12:48;;;;;;;2.77;2.33;;;25.50;97.60;;;;;;5033664;28;20433;-70
2021/06/12 00:15:16;;;;;;;2.10;1.90;;;25.50;97.70;;;;;;5033854;28;20464;-69
2021/06/12 00:17:43;;;;;;;2.50;2.10;;;25.50;97.70;;;;;;5028067;28;20468;-69
2021/06/12 00:20:12;;;;;;;2.23;2.03;;;25.50;97.80;;;;;;5029189;28;20462;-69
2021/06/12 00:22:38;;;;;;;2.93;2.30;;;25.50;97.80;;;;;;5032625;28;20454;-70
2021/06/12 00:25:06;;;;;;;2.50;2.10;;;25.40;97.80;;;;;;5014413;28;20462;-69
2021/06/12 00:27:32;;;;;;;3.87;2.03;;;25.40;97.90;;;;;;5026810;28;20523;-69
2021/06/12 00:29:59;;;;;;;1.80;1.57;;;25.40;98.00;;;;;;5013899;28;20451;-69
2021/06/12 00:32:26;;;;;;;3.70;3.40;;;25.40;98.00;;;;;;5029824;28;20926;-69
2021/06/12 00:34:52;;;;;;;2.30;2.10;;;25.40;98.20;;;;;;5032668;28;20481;-69
2021/06/12 00:37:18;;;;;;;1.77;1.67;;;25.30;98.10;;;;;;5033197;28;20454;-69
2021/06/12 00:39:44;;;;;;;2.00;1.90;;;25.30;98.20;;;;;;5033907;28;20765;-69
2021/06/12 00:42:10;;;;;;;2.40;2.20;;;25.30;98.30;;;;;;5022370;28;20780;-70
2021/06/12 00:44:37;;;;;;;2.40;2.20;;;25.20;98.30;;;;;;5033754;28;20460;-70
2021/06/12 00:47:05;;;;;;;2.17;1.90;;;25.30;98.40;;;;;;5032603;28;20465;-69
2021/06/12 00:49:31;;;;;;;2.47;2.27;;;25.20;98.50;;;;;;5032928;28;20458;-70
2021/06/12 00:51:57;;;;;;;2.53;2.33;;;25.20;98.50;;;;;;5024875;28;20491;-69
2021/06/12 00:54:23;;;;;;;2.47;2.27;;;25.20;98.60;;;;;;5033249;28;20454;-69
2021/06/12 00:56:49;;;;;;;2.70;2.50;;;25.20;98.70;;;;;;5032428;28;21045;-70
2021/06/12 00:59:16;;;;;;;2.50;2.30;;;25.10;98.70;;;;;;5033435;28;20442;-69
2021/06/12 01:01:42;;;;;;;3.33;2.37;;;25.10;98.80;;;;;;5032719;28;20470;-69
2021/06/12 01:04:10;;;;;;;2.50;2.30;;;25.10;98.90;;;;;;5032341;28;20458;-70
2021/06/12 01:06:36;;;;;;;2.70;2.50;;;25.10;99.00;;;;;;5032659;28;20458;-69
2021/06/12 01:09:03;;;;;;;3.20;2.37;;;25.10;99.00;;;;;;5032683;28;20467;-70
2021/06/12 01:11:31;;;;;;;2.63;2.43;;;25.00;99.00;;;;;;5030817;28;20478;-69
2021/06/12 01:14:05;;;;;;;2.50;2.30;;;25.00;99.10;;;;;;5021812;28;20909;-70
2021/06/12 01:16:38;;;;;;;2.37;2.17;;;25.00;99.10;;;;;;5032467;28;20454;-70
2021/06/12 01:19:17;;;;;;;2.37;2.17;;;25.00;99.20;;;;;;5032253;28;20461;-70
2021/06/12 01:21:47;;;;;;;2.60;2.40;;;25.00;99.20;;;;;;5015494;28;20450;-70
2021/06/12 01:24:34;;;;;;;2.27;2.10;;;25.00;99.20;;;;;;5031662;28;22098;-71
2021/06/12 01:27:29;;;;;;;2.67;2.47;;;24.90;99.30;;;;;;5032153;28;20961;-70
2021/06/12 01:30:06;;;;;;;3.00;2.80;;;24.90;99.30;;;;;;5027803;28;20457;-70
2021/06/12 01:32:34;;;;;;;2.17;2.07;;;24.90;99.40;;;;;;5031632;28;20732;-70
2021/06/12 01:35:05;;;;;;;2.73;2.53;;;24.90;99.40;;;;;;5032594;28;20496;-70
2021/06/12 01:37:35;;;;;;;2.43;2.23;;;24.90;99.40;;;;;;5025602;28;20459;-70
2021/06/12 01:40:04;;;;;;;2.53;2.33;;;24.90;99.50;;;;;;5027877;28;20980;-69
2021/06/12 01:42:30;;;;;;;2.07;1.90;;;24.90;99.50;;;;;;5031183;28;20930;-69
2021/06/12 01:44:57;;;;;;;2.40;2.20;;;24.80;99.50;;;;;;5032324;28;20854;-69
2021/06/12 01:47:25;;;;;;;2.70;2.50;;;24.80;99.60;;;;;;5032538;28;20461;-70
2021/06/12 01:49:53;;;;;;;2.87;1.83;;;24.80;99.70;;;;;;5031462;28;20454;-70
2021/06/12 01:52:20;;;;;;;3.10;2.40;;;24.80;99.70;;;;;;5030930;28;20486;-70
2021/06/12 01:54:49;;;;;;;2.30;2.10;;;24.80;99.80;;;;;;5032578;28;20933;-70
2021/06/12 01:57:17;;;;;;;1.93;1.80;;;24.80;99.80;;;;;;5031323;28;20469;-69
2021/06/12 01:59:44;;;;;;;2.60;2.37;;;24.80;99.80;;;;;;5032073;28;20445;-69
2021/06/12 02:02:10;;;;;;;2.43;2.23;;;24.80;99.90;;;;;;5030630;28;20445;-69
2021/06/12 02:04:39;;;;;;;2.33;1.80;;;24.80;99.90;;;;;;5031773;28;20462;-69
2021/06/12 02:07:07;;;;;;;2.20;2.10;;;24.70;99.90;;;;;;5030867;28;20955;-70
2021/06/12 02:09:36;;;;;;;2.63;2.43;;;24.70;99.90;;;;;;5031839;28;20469;-70
2021/06/12 02:12:05;;;;;;;2.73;2.40;;;24.70;99.90;;;;;;5031238;28;20484;-69
2021/06/12 02:14:32;;;;;;;2.40;2.00;;;24.70;99.90;;;;;;5022773;28;20457;-69
2021/06/12 02:16:58;;;;;;;3.40;2.07;;;24.70;99.90;;;;;;5030791;28;20454;-69
2021/06/12 02:19:25;;;;;;;2.57;2.37;;;24.60;99.90;;;;;;5030982;28;20961;-69
2021/06/12 02:21:53;;;;;;;4.10;2.60;;;24.60;99.90;;;;;;5030954;28;20941;-69
2021/06/12 02:24:20;;;;;;;2.73;2.53;;;24.60;99.90;;;;;;5032190;28;20976;-70
2021/06/12 02:26:51;;;;;;;2.47;2.27;;;24.60;99.90;;;;;;5031264;28;20485;-69
2021/06/12 02:29:19;;;;;;;2.63;2.43;;;24.60;99.90;;;;;;5031160;28;20473;-69
2021/06/12 02:31:48;;;;;;;2.50;2.30;;;24.60;99.90;;;;;;5031180;28;20492;-70
2021/06/12 02:34:15;;;;;;;2.33;2.13;;;24.50;99.90;;;;;;5031456;28;20489;-69
2021/06/12 02:36:41;;;;;;;2.20;2.00;;;24.50;99.90;;;;;;5028973;28;20454;-69
2021/06/12 02:39:08;;;;;;;2.67;2.47;;;24.50;99.90;;;;;;5031381;28;20450;-70
2021/06/12 02:41:37;;;;;;;2.90;2.30;;;24.50;99.90;;;;;;5030587;28;20935;-70
2021/06/12 02:44:03;;;;;;;3.27;2.80;;;24.40;99.90;;;;;;5030987;28;20468;-70
2021/06/12 02:46:32;;;;;;;3.13;2.50;;;24.50;99.90;;;;;;5031118;28;20464;-70
2021/06/12 02:49:00;;;;;;;2.70;2.50;;;24.40;99.90;;;;;;5030587;28;20454;-69
2021/06/12 02:51:28;;;;;;;2.47;1.67;;;24.40;99.90;;;;;;5030207;28;20671;-70
2021/06/12 02:53:57;;;;;;;2.50;2.30;;;24.40;99.90;;;;;;5013225;28;20446;-70
2021/06/12 02:56:27;;;;;;;2.73;2.47;;;24.40;99.90;;;;;;5021600;28;20474;-70
2021/06/12 02:58:56;;;;;;;2.70;2.50;;;24.30;99.90;;;;;;5030422;28;20465;-71
2021/06/12 03:01:24;;;;;;;3.20;2.60;;;24.30;99.90;;;;;;5029299;28;20454;-70
2021/06/12 03:03:51;;;;;;;2.73;2.53;;;24.30;99.90;;;;;;5028353;28;20461;-70
2021/06/12 03:06:20;;;;;;;3.50;2.50;;;24.30;99.90;;;;;;5029999;28;20465;-70
2021/06/12 03:08:49;;;;;;;2.77;2.57;;;24.30;99.90;;;;;;5030256;28;20450;-70
2021/06/12 03:11:17;;;;;;;2.60;2.40;;;24.30;99.90;;;;;;5030572;28;20474;-70
2021/06/12 03:13:46;;;;;;;2.50;2.30;;;24.30;99.90;;;;;;5019180;28;20463;-70
2021/06/12 03:16:14;;;;;;;2.80;2.60;;;24.30;99.90;;;;;;5014857;28;20466;-70
2021/06/12 03:18:43;;;;;;;2.70;2.50;;;24.30;99.90;;;;;;5016050;28;20458;-70
2021/06/12 03:21:11;;;;;;;4.00;2.93;;;24.20;99.90;;;;;;5020651;28;20540;-69
2021/06/12 03:23:38;;;;;;;2.93;2.73;;;24.20;99.90;;;;;;5027167;28;20468;-69
2021/06/12 03:26:05;;;;;;;3.33;3.03;;;24.20;99.90;;;;;;5028364;28;20457;-70
2021/06/12 03:28:31;;;;;;;2.50;2.30;;;24.20;99.90;;;;;;5030162;28;20434;-69
2021/06/12 03:31:01;;;;;;;3.37;2.90;;;24.20;99.90;;;;;;5029154;28;20457;-69
2021/06/12 03:33:27;;;;;;;2.67;2.47;;;24.10;99.90;;;;;;5028629;28;21000;-69
2021/06/12 03:35:54;;;;;;;3.20;2.90;;;24.10;99.90;;;;;;5030272;28;20949;-70
2021/06/12 03:38:21;;;;;;;2.70;2.50;;;24.10;99.90;;;;;;5029968;28;20814;-70
2021/06/12 03:40:48;;;;;;;2.93;2.73;;;24.10;99.90;;;;;;5030401;28;20457;-69
2021/06/12 03:43:15;;;;;;;2.57;2.40;;;24.10;99.90;;;;;;5028846;28;20458;-70
2021/06/12 03:45:42;;;;;;;2.80;2.60;;;24.10;99.90;;;;;;5024529;28;21064;-69
2021/06/12 03:48:12;;;;;;;3.10;2.90;;;24.10;99.90;;;;;;5029757;28;20462;-69
2021/06/12 03:50:41;;;;;;;3.30;3.00;;;24.10;99.90;;;;;;5022846;28;20461;-69
2021/06/12 03:53:08;;;;;;;3.30;3.00;;;24.00;99.90;;;;;;5022650;28;20539;-70
2021/06/12 03:55:34;;;;;;;2.87;2.67;;;24.00;99.90;;;;;;5030233;28;20458;-70
2021/06/12 03:58:01;;;;;;;2.70;2.50;;;24.00;99.90;;;;;;5029103;28;20465;-69
2021/06/12 04:00:28;;;;;;;2.47;2.27;;;24.00;99.90;;;;;;5028051;28;20465;-70
2021/06/12 04:02:54;;;;;;;3.00;2.80;;;24.00;99.90;;;;;;5027853;28;20454;-69
2021/06/12 04:05:21;;;;;;;2.97;2.77;;;24.00;99.90;;;;;;5028660;28;20492;-69
2021/06/12 04:07:48;;;;;;;3.27;2.97;;;23.90;99.90;;;;;;5030276;28;20458;-70
2021/06/12 04:10:14;;;;;;;3.73;2.87;;;23.90;99.90;;;;;;5025887;28;20441;-70
2021/06/12 04:12:41;;;;;;;2.80;2.60;;;23.90;99.90;;;;;;5030108;28;20477;-70
2021/06/12 04:15:08;;;;;;;3.33;3.03;;;23.90;99.90;;;;;;5030479;28;20873;-70
2021/06/12 04:17:35;;;;;;;3.03;2.43;;;23.90;99.90;;;;;;5030263;28;20791;-69
2021/06/12 04:20:01;;;;;;;2.97;2.77;;;23.90;99.90;;;;;;5028740;28;20620;-69
2021/06/12 04:22:29;;;;;;;2.67;2.40;;;23.90;99.90;;;;;;5029288;28;20515;-70
2021/06/12 04:24:55;;;;;;;2.57;2.23;;;23.90;99.90;;;;;;5023160;28;20944;-69
2021/06/12 04:27:21;;;;;;;3.40;3.10;;;23.90;99.90;;;;;;5011720;28;20438;-69
2021/06/12 04:29:47;;;;;;;2.93;2.63;;;23.90;99.90;;;;;;5029389;28;20462;-69
2021/06/12 04:32:14;;;;;;;2.80;2.60;;;23.80;99.90;;;;;;5011991;28;20471;-69
2021/06/12 04:34:40;;;;;;;3.03;2.77;;;23.80;99.90;;;;;;5029263;28;20488;-69
2021/06/12 04:37:08;;;;;;;2.80;2.53;;;23.80;99.90;;;;;;5029928;28;20460;-69
2021/06/12 04:39:36;;;;;;;3.30;2.67;;;23.80;99.90;;;;;;5029755;28;20465;-69
2021/06/12 04:42:02;;;;;;;3.20;2.90;;;23.80;99.90;;;;;;5034203;28;20503;-69
2021/06/12 04:44:28;;;;;;;2.70;2.50;;;23.80;99.90;;;;;;5032199;28;20934;-69
2021/06/12 04:46:54;;;;;;;3.13;2.67;;;23.80;99.90;;;;;;5033152;28;20465;-69
2021/06/12 04:49:21;;;;;;;3.00;2.70;;;23.80;99.90;;;;;;5029233;28;20462;-69
2021/06/12 04:51:47;;;;;;;3.00;2.50;;;23.80;99.90;;;;;;5031609;28;20490;-69
2021/06/12 04:54:13;;;;;;;2.77;2.57;;;23.80;99.90;;;;;;5026428;28;20466;-69
2021/06/12 04:56:42;;;;;;;2.77;2.57;;;23.80;99.90;;;;;;5014419;28;20454;-69
2021/06/12 04:59:08;;;;;;;2.47;2.27;;;23.80;99.90;;;;;;5031615;28;20496;-70
2021/06/12 05:01:34;;;;;;;2.43;2.23;;;23.70;99.90;;;;;;5028812;28;20458;-69
2021/06/12 05:04:00;;;;;;;2.73;2.53;;;23.70;99.90;;;;;;5032937;28;20454;-71
2021/06/12 05:06:27;;;;;;;2.27;2.07;;;23.70;99.90;;;;;;5031302;28;20535;-70
2021/06/12 05:08:53;;;;;;;2.50;2.30;;;23.70;99.90;;;;;;5030298;28;20454;-69
2021/06/12 05:11:19;;;;;;;2.40;2.20;;;23.80;99.90;;;;;;5032449;28;21017;-69
2021/06/12 05:13:47;;;;;;;2.67;2.40;;;23.70;99.90;;;;;;5030132;28;20458;-68
2021/06/12 05:16:14;;;;;;;2.53;2.33;;;23.80;99.90;;;;;;5023455;28;20459;-69
2021/06/12 05:18:41;;;;;;;2.40;2.10;;;23.70;99.90;;;;;;5029779;28;20566;-68
2021/06/12 05:21:08;;;;;;;3.00;2.80;;;23.70;99.90;;;;;;5025630;28;20884;-68
2021/06/12 05:23:35;;;;;;;2.60;2.40;;;23.70;99.90;;;;;;5032348;28;20477;-69
2021/06/12 05:26:03;;;;;;;3.40;2.70;;;23.70;99.90;;;;;;5031040;28;20466;-69
2021/06/12 05:28:29;;;;;;;3.30;2.30;;;23.70;99.90;;;;;;5033202;28;20472;-69
2021/06/12 05:30:57;;;;;;;2.30;2.10;;;23.70;99.90;;;;;;5030380;28;20462;-69
2021/06/12 05:33:24;;;;;;;2.10;1.90;;;23.70;99.90;;;;;;5032069;28;20814;-69
2021/06/12 05:35:50;;;;;;;2.47;2.27;;;23.70;99.90;;;;;;5030341;28;20441;-70
2021/06/12 05:38:17;;;;;;;3.00;2.80;;;23.70;99.90;;;;;;5027787;28;20513;-69
2021/06/12 05:40:43;;;;;;;3.10;2.90;;;23.70;99.90;;;;;;5013362;28;20450;-70
2021/06/12 05:43:10;;;;;;;2.70;2.50;;;23.70;99.90;;;;;;5014103;28;20949;-69
2021/06/12 05:45:37;;;;;;;2.73;2.40;;;23.70;99.90;;;;;;5019229;28;20459;-70
2021/06/12 05:48:05;;;;;;;3.17;2.87;;;23.70;99.90;;;;;;5027235;28;20455;-69
2021/06/12 05:50:31;;;;;;;2.43;2.20;;;23.70;99.90;;;;;;5032185;28;20438;-69
2021/06/12 05:52:58;;;;;;;3.93;2.70;;;23.80;99.90;;;;;;5027669;28;20989;-70
2021/06/12 05:55:24;;;;;;;3.00;2.70;;;23.80;99.90;;;;;;5031437;28;20926;-70
2021/06/12 05:57:50;;;;;;;5.47;2.97;;;23.80;99.90;;;;;;5032205;28;20442;-73
2021/06/12 06:00:17;;;;;;;3.63;2.87;;;23.80;99.90;;;;;;5031464;28;20464;-69
2021/06/12 06:02:44;;;;;;;2.80;2.60;;;23.90;99.90;;;;;;5028456;28;20461;-69
2021/06/12 06:05:12;;;;;;;2.90;2.40;;;24.00;99.90;;;;;;5030507;28;20442;-68
2021/06/12 06:07:38;;;;;;;2.70;2.50;;;24.00;99.90;;;;;;5031062;28;20842;-69
2021/06/12 06:10:05;;;;;;;2.63;2.43;;;24.00;99.90;;;;;;5031758;28;20994;-69
2021/06/12 06:12:33;;;;;;;5.80;2.20;;;24.00;99.90;;;;;;5031293;28;20477;-69
2021/06/12 06:14:59;;;;;;;3.00;2.67;;;24.00;99.90;;;;;;5032221;28;20445;-68
2021/06/12 06:17:26;;;;;;;4.17;3.33;;;24.10;99.90;;;;;;5031908;28;20477;-69
2021/06/12 06:19:52;;;;;;;2.97;2.50;;;24.00;99.90;;;;;;5031375;28;20458;-69
2021/06/12 06:22:19;;;;;;;3.50;3.20;;;24.00;99.90;;;;;;5031477;28;20453;-69
2021/06/12 06:24:46;;;;;;;2.73;2.53;;;24.00;99.90;;;;;;5031424;28;20465;-69
2021/06/12 06:27:12;;;;;;;4.60;2.50;;;24.00;99.90;;;;;;5027194;28;20454;-69
2021/06/12 06:29:38;;;;;;;2.93;2.47;;;24.00;99.90;;;;;;5030561;28;20841;-69
2021/06/12 06:32:05;;;;;;;2.83;2.63;;;24.00;99.90;;;;;;5031792;28;20477;-69
2021/06/12 06:34:32;;;;;;;2.37;1.97;;;24.00;99.90;;;;;;5031003;28;20878;-69
2021/06/12 06:36:58;;;;;;;3.63;2.50;;;24.00;99.90;;;;;;5027292;28;20458;-68
2021/06/12 06:39:25;;;;;;;3.60;2.73;;;24.00;99.90;;;;;;5032365;28;21044;-69
2021/06/12 06:41:52;;;;;;;3.50;3.13;;;24.00;99.90;;;;;;5031898;28;20830;-68
2021/06/12 06:44:18;;;;;;;2.40;2.00;;;24.00;99.90;;;;;;5032073;28;20775;-69
2021/06/12 06:46:44;;;;;;;2.90;2.70;;;24.00;99.90;;;;;;5030847;28;20508;-69
2021/06/12 06:49:10;;;;;;;2.83;2.50;;;24.00;99.90;;;;;;5031406;28;20446;-69
2021/06/12 06:51:37;;;;;;;3.53;2.57;;;24.00;99.90;;;;;;5031950;28;20478;-69
2021/06/12 06:54:03;;;;;;;3.60;3.30;;;24.10;99.90;;;;;;5030961;28;20795;-69
2021/06/12 06:56:31;;;;;;;5.53;2.80;;;24.10;99.90;;;;;;5030130;28;20930;-69
2021/06/12 06:58:57;;;;;;;5.13;2.70;;;24.10;99.90;;;;;;5031510;28;20461;-69
2021/06/12 07:01:23;;;;;;;6.53;2.77;;;24.00;99.90;;;;;;5029284;28;20473;-69
2021/06/12 07:03:49;;;;;;;2.83;2.63;;;24.00;99.90;;;;;;5029747;28;20504;-69
2021/06/12 07:06:16;;;;;;;3.20;2.60;;;24.00;99.90;;;;;;5030810;28;20842;-69
2021/06/12 07:08:42;;;;;;;3.13;2.63;;;24.00;99.90;;;;;;5030250;28;20934;-69
2021/06/12 07:11:08;;;;;;;3.70;2.80;;;24.00;99.90;;;;;;5014960;28;20466;-70
2021/06/12 07:13:35;;;;;;;3.30;3.00;;;24.00;99.90;;;;;;5021852;28;20497;-69
2021/06/12 07:16:02;;;;;;;3.07;2.70;;;24.00;99.90;;;;;;5029318;28;20446;-69
2021/06/12 07:18:28;;;;;;;2.40;2.20;;;23.90;99.90;;;;;;5025127;28;20503;-69
2021/06/12 07:20:54;;;;;;;2.60;2.40;;;23.90;99.90;;;;;;5025809;28;20791;-69
2021/06/12 07:23:20;;;;;;;2.83;2.37;;;23.90;99.90;;;;;;5026794;28;20453;-69
2021/06/12 07:25:47;;;;;;;3.07;2.77;;;23.90;99.90;;;;;;5027471;28;20466;-68
2021/06/12 07:28:14;;;;;;;2.50;2.30;;;23.80;99.90;;;;;;5029456;28;20457;-69
2021/06/12 07:30:42;;;;;;;2.50;2.30;;;23.80;99.90;;;;;;5030573;28;20819;-69
2021/06/12 07:33:10;;;;;;;3.10;2.50;;;23.80;99.90;;;;;;5030277;28;20496;-69
2021/06/12 07:35:36;;;;;;;2.87;2.60;;;23.80;99.90;;;;;;5030941;28;20460;-69
2021/06/12 07:38:04;;;;;;;2.17;1.97;;;23.80;99.90;;;;;;5030284;28;20450;-69
2021/06/12 07:40:30;;;;;;;2.00;1.77;;;23.80;99.90;;;;;;5026577;28;21014;-68
2021/06/12 07:42:57;;;;;;;2.80;2.60;;;23.80;99.90;;;;;;5021868;28;20497;-68
2021/06/12 07:45:23;;;;;;;2.47;1.90;;;23.80;99.90;;;;;;5021248;28;20467;-69
2021/06/12 07:47:51;;;;;;;6.23;2.73;;;23.80;99.90;;;;;;5028713;28;20434;-68
2021/06/12 07:50:18;;;;;;;2.90;2.53;;;23.80;99.90;;;;;;5030636;28;20535;-69
2021/06/12 07:52:44;;;;;;;3.27;2.30;;;23.80;99.90;;;;;;5030130;28;20486;-69
2021/06/12 07:55:12;;;;;;;2.43;2.23;;;23.80;99.90;;;;;;5030587;28;20950;-69
2021/06/12 07:57:39;;;;;;;4.03;3.40;;;23.70;99.90;;;;;;5027402;28;20442;-69
2021/06/12 08:00:08;;;;;;;3.37;3.10;;;23.70;99.90;;;;;;5030307;28;20521;-68
2021/06/12 08:02:34;;;;;;;2.60;2.40;;;23.70;99.90;;;;;;5029819;28;20446;-69
2021/06/12 08:05:02;;;;;;;2.93;2.70;;;23.70;99.90;;;;;;5030630;28;20831;-69
2021/06/12 08:07:28;;;;;;;2.50;2.30;;;23.70;99.90;;;;;;5029655;28;20465;-69
2021/06/12 08:09:55;;;;;;;3.07;2.80;;;23.70;99.90;;;;;;5036832;28;20440;-69
2021/06/12 08:12:22;;;;;;;2.83;2.60;;;23.70;99.90;;;;;;5030587;28;20520;-68
2021/06/12 08:14:48;;;;;;;3.53;2.70;;;23.70;99.90;;;;;;5030191;28;20450;-69
2021/06/12 08:17:15;;;;;;;3.10;2.53;;;23.70;99.90;;;;;;5033595;28;20553;-69
2021/06/12 08:19:41;;;;;;;2.53;2.33;;;23.70;99.90;;;;;;5034372;28;20441;-69
2021/06/12 08:22:11;;;;;;;3.20;2.93;;;23.70;99.90;;;;;;5033716;28;20512;-68
2021/06/12 08:24:37;;;;;;;3.30;3.00;;;23.70;99.90;;;;;;5034326;28;20985;-69
2021/06/12 08:27:03;;;;;;;2.80;2.60;;;23.70;99.90;;;;;;5033676;28;20924;-69
2021/06/12 08:29:30;;;;;;;3.43;3.13;;;23.70;99.90;;;;;;5034066;28;20524;-69
2021/06/12 08:31:56;;;;;;;3.20;2.50;;;23.70;99.90;;;;;;5033854;28;20485;-69
2021/06/12 08:34:22;;;;;;;3.87;2.87;;;23.70;99.90;;;;;;5033392;28;20543;-69
2021/06/12 08:36:49;;;;;;;3.50;3.30;;;23.70;99.90;;;;;;5033255;28;20791;-69
2021/06/12 08:39:17;;;;;;;5.70;5.30;;;23.70;99.90;;;;;;5034279;28;20446;-69
2021/06/12 08:41:43;;;;;;;4.60;4.20;;;23.70;99.90;;;;;;5033785;28;20461;-69
2021/06/12 08:44:11;;;;;;;5.30;4.63;;;23.70;99.90;;;;;;5032968;28;20453;-69
2021/06/12 08:46:39;;;;;;;5.97;5.37;;;23.70;99.90;;;;;;5031666;28;20516;-69
2021/06/12 08:49:06;;;;;;;5.10;4.10;;;23.70;99.90;;;;;;5032992;28;20458;-69
2021/06/12 08:51:32;;;;;;;4.30;4.00;;;23.80;99.90;;;;;;5032543;28;20454;-69
2021/06/12 08:53:58;;;;;;;4.90;4.50;;;23.80;99.90;;;;;;5033625;28;20429;-69
2021/06/12 08:56:26;;;;;;;4.30;3.60;;;23.80;99.90;;;;;;5032374;28;20464;-69
2021/06/12 08:58:52;;;;;;;4.80;4.40;;;23.90;99.90;;;;;;5031965;28;20803;-69
2021/06/12 09:01:19;;;;;;;5.23;4.73;;;23.90;99.90;;;;;;5033225;28;20554;-69
2021/06/12 09:03:46;;;;;;;5.37;4.80;;;23.90;99.90;;;;;;5032088;28;20462;-69
2021/06/12 09:06:16;;;;;;;4.63;4.30;;;24.00;99.90;;;;;;5031651;28;20461;-69
2021/06/12 09:08:43;;;;;;;5.07;4.57;;;24.00;99.90;;;;;;5031509;28;20458;-69
2021/06/12 09:11:11;;;;;;;5.77;5.00;;;24.10;99.90;;;;;;5031435;28;20466;-69
2021/06/12 09:13:46;;;;;;;4.80;4.40;;;24.20;99.90;;;;;;5032787;28;20505;-69
2021/06/12 09:16:27;;;;;;;4.73;4.33;;;24.30;99.90;;;;;;5032425;28;20461;-68
2021/06/12 09:18:55;;;;;;;4.47;4.17;;;24.30;99.90;;;;;;5028823;28;20454;-69
2021/06/12 09:21:27;;;;;;;6.03;5.40;;;24.40;99.90;;;;;;5027630;28;21201;-70
2021/06/12 09:23:54;;;;;;;5.27;4.80;;;24.40;99.90;;;;;;5029164;28;20522;-69
2021/06/12 09:26:22;;;;;;;6.30;5.27;;;24.40;99.90;;;;;;5031162;28;20438;-69
2021/06/12 09:28:52;;;;;;;5.97;5.43;;;24.40;99.90;;;;;;5031380;28;20454;-69
2021/06/12 09:31:26;;;;;;;5.70;5.30;;;24.40;99.90;;;;;;5031989;28;20452;-69
2021/06/12 09:33:55;;;;;;;5.20;4.80;;;24.40;99.90;;;;;;5029156;28;20868;-69
2021/06/12 09:36:32;;;;;;;5.20;4.70;;;24.40;99.90;;;;;;5032009;28;20469;-69
2021/06/12 09:39:06;;;;;;;5.20;4.80;;;24.30;99.90;;;;;;5032272;28;20445;-69
2021/06/12 09:41:33;;;;;;;5.50;5.00;;;24.30;99.90;;;;;;5031964;28;20479;-69
2021/06/12 09:44:01;;;;;;;8.13;5.50;;;24.40;99.90;;;;;;5032226;28;20450;-70
2021/06/12 09:46:33;;;;;;;7.00;6.30;;;24.40;99.90;;;;;;5031742;28;20473;-69
2021/06/12 09:48:59;;;;;;;5.20;4.80;;;24.40;99.90;;;;;;5026015;28;20455;-69
2021/06/12 09:51:26;;;;;;;6.13;5.53;;;24.50;99.90;;;;;;5028048;28;20462;-69
2021/06/12 09:53:54;;;;;;;5.93;5.43;;;24.60;99.90;;;;;;5031237;28;20536;-69
2021/06/12 09:56:21;;;;;;;8.13;4.50;;;24.60;99.90;;;;;;5031506;28;20466;-70
2021/06/12 09:58:47;;;;;;;5.17;4.53;;;24.60;99.90;;;;;;5031968;28;20454;-69
2021/06/12 10:01:18;;;;;;;5.30;4.80;;;24.60;99.90;;;;;;5031887;28;20475;-69
2021/06/12 10:03:45;;;;;;;5.67;5.27;;;24.60;99.90;;;;;;5032129;28;20485;-69
2021/06/12 10:06:13;;;;;;;5.17;4.77;;;24.60;99.90;;;;;;5032958;28;20476;-70
2021/06/12 10:08:41;;;;;;;5.00;4.70;;;24.70;99.90;;;;;;5032144;28;20549;-69
2021/06/12 10:11:07;;;;;;;5.33;4.93;;;24.60;99.90;;;;;;5032010;28;20549;-69
2021/06/12 10:13:34;;;;;;;5.77;5.10;;;24.70;99.90;;;;;;5030048;28;20470;-69
2021/06/12 10:16:01;;;;;;;5.10;4.70;;;24.70;99.90;;;;;;5032482;28;20454;-69
2021/06/12 10:18:29;;;;;;;5.80;5.30;;;24.70;99.90;;;;;;5030905;28;20450;-69
2021/06/12 10:20:56;;;;;;;4.97;4.57;;;24.70;99.90;;;;;;5030685;28;20473;-70
2021/06/12 10:23:24;;;;;;;6.80;6.17;;;24.60;99.90;;;;;;5030502;28;20454;-69
2021/06/12 10:25:52;;;;;;;5.90;5.50;;;24.60;99.90;;;;;;5030496;28;20472;-69
2021/06/12 10:28:20;;;;;;;4.33;3.93;;;24.70;99.90;;;;;;5031406;28;20784;-69
2021/06/12 10:30:47;;;;;;;5.30;4.53;;;24.70;99.90;;;;;;5030920;28;20449;-69
2021/06/12 10:33:17;;;;;;;5.20;4.70;;;24.80;99.90;;;;;;5030197;28;20486;-69
2021/06/12 10:35:44;;;;;;;5.33;4.83;;;24.80;99.90;;;;;;5031242;28;20445;-69
2021/06/12 10:38:14;;;;;;;4.63;4.23;;;24.90;99.90;;;;;;5029739;28;20450;-69
2021/06/12 10:40:46;;;;;;;4.90;4.50;;;24.90;99.90;;;;;;5030735;28;20489;-69
2021/06/12 10:43:15;;;;;;;4.03;3.57;;;24.90;99.90;;;;;;5031406;28;20453;-69
2021/06/12 10:45:43;;;;;;;4.40;4.00;;;25.00;99.90;;;;;;5024110;28;20814;-69
2021/06/12 10:48:09;;;;;;;3.90;3.60;;;24.90;99.90;;;;;;5011255;28;20446;-68
2021/06/12 10:50:42;;;;;;;6.23;5.40;;;24.90;99.90;;;;;;5029386;28;20519;-70
2021/06/12 10:53:22;;;;;;;5.47;4.97;;;24.90;99.90;;;;;;5019405;28;20474;-69
2021/06/12 10:55:49;;;;;;;4.13;3.83;;;24.90;99.90;;;;;;5013872;28;20442;-70
2021/06/12 10:58:48;;;;;;;4.30;4.00;;;25.00;99.90;;;;;;5030741;28;20446;-69
2021/06/12 11:01:19;;;;;;;3.70;3.40;;;24.90;99.90;;;;;;5029968;28;20953;-69
2021/06/12 11:03:58;;;;;;;4.50;4.10;;;24.90;99.90;;;;;;5029989;28;20445;-69
2021/06/12 11:06:41;;;;;;;4.63;3.97;;;24.90;99.90;;;;;;5029446;28;20438;-69
2021/06/12 11:09:32;;;;;;;4.57;4.17;;;24.90;99.90;;;;;;5029656;28;20466;-69
2021/06/12 11:12:00;;;;;;;3.93;3.40;;;24.80;99.90;;;;;;5029867;28;20469;-70
2021/06/12 11:14:31;;;;;;;3.80;3.37;;;24.80;99.90;;;;;;5030654;28;20756;-69
2021/06/12 11:17:19;;;;;;;3.53;3.23;;;24.70;99.90;;;;;;5030226;28;20991;-70
2021/06/12 11:19:49;;;;;;;4.03;3.17;;;24.70;99.90;;;;;;5019728;28;20465;-69
2021/06/12 11:22:30;;;;;;;3.70;3.17;;;24.70;99.90;;;;;;5029905;28;20453;-70
2021/06/12 11:24:59;;;;;;;4.20;3.80;;;24.80;99.90;;;;;;5029028;28;20956;-69
2021/06/12 11:27:28;;;;;;;3.10;2.90;;;24.80;99.90;;;;;;5030431;28;20442;-69
2021/06/12 11:30:14;;;;;;;4.40;2.83;;;24.80;99.90;;;;;;5029217;28;20585;-69
2021/06/12 11:32:42;;;;;;;3.03;2.73;;;24.80;99.90;;;;;;5028246;28;20556;-69
2021/06/12 11:35:09;;;;;;;3.60;3.30;;;24.90;99.90;;;;;;5027170;28;20502;-69
2021/06/12 11:37:35;;;;;;;4.30;2.90;;;24.90;99.80;;;;;;5021833;28;20441;-69
2021/06/12 11:40:06;;;;;;;3.83;3.37;;;24.90;99.40;;;;;;5029393;28;20481;-69
2021/06/12 11:42:42;;;;;;;4.43;2.97;;;25.00;98.40;;;;;;5029330;28;20846;-69
2021/06/12 11:45:17;;;;;;;4.93;3.50;;;25.00;98.00;;;;;;5029858;28;20441;-69
2021/06/12 11:47:43;;;;;;;5.67;5.17;;;25.00;98.50;;;;;;5029527;28;20531;-69
2021/06/12 11:50:10;;;;;;;6.60;3.30;;;25.00;97.60;;;;;;5031209;28;20506;-69
2021/06/12 11:52:38;;;;;;;9.00;7.30;;;25.00;97.10;;;;;;5033363;28;20512;-69
2021/06/12 11:55:18;;;;;;;5.80;5.30;;;25.00;97.30;;;;;;5033891;28;20481;-69
2021/06/12 11:57:46;;;;;;;4.60;4.10;;;25.10;96.40;;;;;;5033994;28;20931;-70
2021/06/12 12:00:32;;;;;;;6.17;3.87;;;25.10;96.60;;;;;;5033198;28;20476;-69
2021/06/12 12:02:59;;;;;;;6.00;4.80;;;25.10;96.20;;;;;;5034117;28;20423;-70
2021/06/12 12:05:31;;;;;;;4.73;3.63;;;25.10;96.30;;;;;;5033462;28;20774;-70
2021/06/12 12:07:57;;;;;;;6.23;4.10;;;25.10;96.40;;;;;;5033858;28;20431;-69
2021/06/12 12:10:26;;;;;;;7.40;4.13;;;25.10;96.20;;;;;;5033518;28;20823;-69
2021/06/12 12:12:52;;;;;;;5.10;4.40;;;25.10;95.80;;;;;;5033278;28;20547;-69
2021/06/12 12:15:34;;;;;;;4.13;3.73;;;25.10;95.90;;;;;;5031796;28;20466;-69
2021/06/12 12:18:06;;;;;;;3.73;3.37;;;25.10;96.20;;;;;;5033448;28;20768;-70
2021/06/12 12:20:40;;;;;;;5.07;4.00;;;25.10;96.10;;;;;;5033123;28;20442;-69
2021/06/12 12:23:25;;;;;;;3.50;3.20;;;25.10;95.90;;;;;;5033249;28;20461;-69
2021/06/12 12:26:05;;;;;;;5.80;3.60;;;25.10;95.90;;;;;;5032814;28;20758;-69
2021/06/12 12:28:32;;;;;;;3.47;3.17;;;25.00;95.80;;;;;;5032917;28;20442;-69
2021/06/12 12:31:07;;;;;;;4.00;3.60;;;25.00;94.90;;;;;;5033151;28;20448;-69
2021/06/12 12:33:44;;;;;;;3.23;2.90;;;25.00;95.20;;;;;;5032755;28;20524;-69
2021/06/12 12:36:10;;;;;;;4.07;3.67;;;25.00;95.20;;;;;;5033889;28;20954;-69
2021/06/12 12:38:37;;;;;;;3.87;2.83;;;25.00;95.50;;;;;;5033389;28;20504;-70
2021/06/12 12:41:06;;;;;;;3.10;2.80;;;25.10;95.60;;;;;;5031170;28;20446;-69
2021/06/12 12:43:32;;;;;;;3.77;3.17;;;25.10;95.50;;;;;;5033444;28;20452;-69
2021/06/12 12:45:59;;;;;;;4.63;3.80;;;25.10;95.50;;;;;;5031481;28;20948;-69
2021/06/12 12:48:26;;;;;;;3.20;3.00;;;25.10;94.90;;;;;;5034007;28;20456;-69
2021/06/12 12:50:53;;;;;;;3.20;2.90;;;25.10;94.80;;;;;;5034218;28;20465;-69
2021/06/12 12:53:20;;;;;;;3.97;2.90;;;25.10;94.60;;;;;;5033869;28;20997;-69